createdAt,value
2022-12-28T00:02:18.224Z,4.10
2022-12-28T00:04:46.736Z,4.50
2022-12-28T00:07:15.185Z,4.30
2022-12-28T00:09:44.938Z,4.17
2022-12-28T00:12:13.370Z,4.53
2022-12-28T00:14:41.769Z,4.47
2022-12-28T00:17:10.433Z,5.77
2022-12-28T00:19:38.981Z,4.37
2022-12-28T00:22:07.409Z,5.00
2022-12-28T00:24:35.876Z,5.50
2022-12-28T00:27:05.913Z,5.10
2022-12-28T00:29:34.389Z,4.83
2022-12-28T00:32:02.883Z,5.37
2022-12-28T00:34:31.305Z,5.63
2022-12-28T00:37:10.862Z,4.13
2022-12-28T00:39:42.185Z,5.40
2022-12-28T00:42:12.532Z,4.80
2022-12-28T00:44:41.110Z,5.50
2022-12-28T00:47:09.532Z,4.70
2022-12-28T00:49:40.848Z,4.60
2022-12-28T00:52:09.304Z,4.10
2022-12-28T00:54:37.722Z,5.00
2022-12-28T00:57:06.200Z,5.00
2022-12-28T00:59:36.309Z,5.40
2022-12-28T01:02:04.823Z,5.07
2022-12-28T01:04:33.396Z,5.53
2022-12-28T01:07:01.796Z,4.37
2022-12-28T01:09:32.823Z,4.70
2022-12-28T01:12:01.282Z,4.37
2022-12-28T01:14:29.667Z,5.00
2022-12-28T01:16:59.517Z,5.80
2022-12-28T01:19:27.932Z,4.90
2022-12-28T01:21:57.995Z,5.70
2022-12-28T01:24:26.377Z,5.40
2022-12-28T01:26:54.777Z,4.83
2022-12-28T01:29:23.119Z,5.17
2022-12-28T01:31:51.528Z,5.80
2022-12-28T01:34:21.250Z,5.07
2022-12-28T01:36:49.709Z,5.87
2022-12-28T01:39:18.028Z,5.40
2022-12-28T01:41:46.775Z,5.17
2022-12-28T01:44:45.455Z,5.90
2022-12-28T01:47:18.899Z,6.10
2022-12-28T01:49:57.011Z,5.23
2022-12-28T01:52:32.029Z,6.43
2022-12-28T01:55:08.688Z,5.80
2022-12-28T01:57:47.714Z,6.43
2022-12-28T02:00:18.692Z,6.50
2022-12-28T02:02:55.186Z,5.40
2022-12-28T02:05:30.448Z,6.17
2022-12-28T02:08:05.919Z,6.00
2022-12-28T02:10:43.893Z,6.90
2022-12-28T02:13:16.853Z,5.60
2022-12-28T02:15:46.135Z,5.83
2022-12-28T02:18:15.852Z,6.80
2022-12-28T02:21:29.198Z,6.27
2022-12-28T02:24:45.124Z,7.53
2022-12-28T02:27:25.036Z,6.43
2022-12-28T02:30:06.837Z,6.80
2022-12-28T02:32:51.453Z,6.53
2022-12-28T02:35:31.091Z,7.30
2022-12-28T02:38:04.473Z,7.07
2022-12-28T02:40:39.866Z,6.13
2022-12-28T02:43:08.371Z,7.00
2022-12-28T02:46:00.872Z,7.80
2022-12-28T02:49:01.622Z,7.40
2022-12-28T02:51:56.639Z,6.93
2022-12-28T02:55:15.969Z,7.37
2022-12-28T02:58:06.846Z,7.63
2022-12-28T03:00:57.583Z,7.33
2022-12-28T03:03:34.989Z,7.80
2022-12-28T03:06:36.096Z,7.50
2022-12-28T03:09:14.281Z,8.23
2022-12-28T03:11:51.810Z,8.00
2022-12-28T03:14:28.086Z,6.77
2022-12-28T03:17:19.505Z,7.80
2022-12-28T03:20:11.253Z,6.87
2022-12-28T03:22:58.962Z,8.53
2022-12-28T03:25:50.522Z,8.03
2022-12-28T03:28:45.914Z,8.10
2022-12-28T03:31:20.333Z,7.83
2022-12-28T03:34:06.685Z,7.77
2022-12-28T03:37:02.882Z,7.37
2022-12-28T03:39:37.975Z,8.00
2022-12-28T03:42:34.294Z,6.53
2022-12-28T03:45:11.539Z,6.20
2022-12-28T03:47:41.249Z,6.33
2022-12-28T03:50:11.577Z,6.87
2022-12-28T03:52:40.415Z,6.83
2022-12-28T03:55:10.489Z,6.60
2022-12-28T03:57:39.742Z,7.17
2022-12-28T04:00:14.528Z,7.17
2022-12-28T04:02:47.495Z,5.90
2022-12-28T04:05:17.587Z,6.70
2022-12-28T04:07:45.965Z,5.90
2022-12-28T04:10:14.324Z,5.23
2022-12-28T04:12:42.918Z,6.30
2022-12-28T04:15:24.493Z,5.83
2022-12-28T04:17:53.139Z,6.07
2022-12-28T04:20:22.863Z,6.30
2022-12-28T04:22:52.263Z,5.90
2022-12-28T04:25:21.023Z,8.17
2022-12-28T04:27:49.772Z,6.80
2022-12-28T04:30:38.171Z,6.70
2022-12-28T04:33:06.530Z,5.77
2022-12-28T04:35:36.324Z,6.47
2022-12-28T04:38:04.814Z,5.70
2022-12-28T04:40:33.191Z,6.37
2022-12-28T04:43:01.615Z,6.90
2022-12-28T04:45:29.988Z,6.77
2022-12-28T04:47:58.622Z,6.00
2022-12-28T04:50:27.922Z,6.37
2022-12-28T04:52:57.701Z,7.10
2022-12-28T04:55:31.891Z,6.30
2022-12-28T04:58:02.412Z,6.63
2022-12-28T05:00:30.831Z,5.80
2022-12-28T05:03:00.534Z,5.33
2022-12-28T05:05:29.452Z,5.50
2022-12-28T05:08:02.162Z,5.77
2022-12-28T05:10:30.814Z,5.30
2022-12-28T05:12:59.293Z,5.20
2022-12-28T05:15:27.676Z,6.00
2022-12-28T05:17:56.952Z,5.50
2022-12-28T05:20:25.319Z,5.60
2022-12-28T05:22:53.723Z,5.37
2022-12-28T05:25:23.635Z,5.37
2022-12-28T05:27:52.031Z,4.93
2022-12-28T05:30:20.509Z,6.37
2022-12-28T05:32:48.919Z,5.17
2022-12-28T05:35:17.488Z,5.30
2022-12-28T05:37:45.852Z,5.03
2022-12-28T05:40:14.216Z,5.00
2022-12-28T05:42:49.486Z,4.40
2022-12-28T05:45:20.052Z,4.30
2022-12-28T05:47:48.544Z,4.60
2022-12-28T05:50:17.119Z,5.40
2022-12-28T05:52:45.774Z,4.13
2022-12-28T05:55:14.272Z,4.57
2022-12-28T05:57:44.055Z,4.30
2022-12-28T06:00:13.956Z,4.53
2022-12-28T06:02:42.511Z,4.80
2022-12-28T06:05:11.162Z,4.70
2022-12-28T06:07:39.530Z,4.40
2022-12-28T06:10:09.594Z,5.60
2022-12-28T06:12:37.951Z,4.10
2022-12-28T06:15:09.326Z,4.10
2022-12-28T06:17:37.978Z,4.20
2022-12-28T06:20:08.097Z,5.57
2022-12-28T06:22:36.666Z,4.37
2022-12-28T06:25:05.627Z,3.93
2022-12-28T06:27:34.036Z,3.43
2022-12-28T06:30:02.436Z,4.10
2022-12-28T06:32:32.126Z,3.80
2022-12-28T06:35:00.572Z,3.70
2022-12-28T06:37:28.945Z,4.23
2022-12-28T06:39:57.305Z,3.70
2022-12-28T06:42:25.687Z,3.60
2022-12-28T06:44:54.010Z,3.43
2022-12-28T06:47:22.393Z,3.23
2022-12-28T06:49:52.101Z,3.43
2022-12-28T06:52:20.502Z,3.37
2022-12-28T06:54:48.893Z,3.33
2022-12-28T06:57:17.258Z,3.80
2022-12-28T06:59:45.643Z,3.03
2022-12-28T07:02:14.096Z,3.00
2022-12-28T07:04:42.575Z,3.27
2022-12-28T07:07:12.295Z,3.40
2022-12-28T07:09:40.705Z,3.40
2022-12-28T07:12:09.467Z,3.17
2022-12-28T07:14:37.878Z,3.37
2022-12-28T07:17:06.535Z,3.93
2022-12-28T07:19:34.861Z,3.50
2022-12-28T07:22:03.643Z,3.60
2022-12-28T07:24:33.300Z,3.13
2022-12-28T07:27:01.687Z,3.60
2022-12-28T07:29:30.018Z,5.03
2022-12-28T07:31:58.428Z,3.20
2022-12-28T07:34:27.587Z,3.70
2022-12-28T07:36:55.996Z,3.77
2022-12-28T07:39:24.369Z,3.83
2022-12-28T07:41:54.183Z,3.63
2022-12-28T07:44:27.903Z,4.07
2022-12-28T07:46:57.847Z,3.53
2022-12-28T07:49:26.175Z,2.90
2022-12-28T07:51:54.529Z,3.60
2022-12-28T07:54:22.947Z,3.10
2022-12-28T07:56:51.303Z,3.30
2022-12-28T07:59:22.747Z,3.00
2022-12-28T08:01:54.378Z,2.90
2022-12-28T08:04:22.775Z,2.70
2022-12-28T08:06:51.148Z,3.27
2022-12-28T08:09:19.532Z,3.00
2022-12-28T08:11:50.472Z,3.03
2022-12-28T08:14:20.236Z,3.03
2022-12-28T08:16:48.578Z,3.63
2022-12-28T08:19:16.883Z,3.27
2022-12-28T08:21:46.725Z,3.33
2022-12-28T08:24:17.366Z,3.23
2022-12-28T08:26:47.051Z,2.67
2022-12-28T08:29:19.165Z,3.03
2022-12-28T08:31:50.098Z,3.00
2022-12-28T08:34:20.830Z,2.60
2022-12-28T08:36:49.176Z,3.20
2022-12-28T08:39:17.535Z,3.20
2022-12-28T08:41:45.910Z,3.03
2022-12-28T08:44:14.280Z,2.60
2022-12-28T08:46:42.828Z,3.00
2022-12-28T08:49:13.012Z,3.20
2022-12-28T08:51:43.010Z,2.93
2022-12-28T08:54:14.829Z,2.80
2022-12-28T08:56:45.304Z,5.73
2022-12-28T08:59:17.226Z,2.30
2022-12-28T09:01:46.908Z,2.43
2022-12-28T09:04:20.929Z,2.00
2022-12-28T09:06:50.496Z,2.80
2022-12-28T09:09:20.968Z,2.80
2022-12-28T09:11:50.201Z,2.30
2022-12-28T09:14:23.721Z,2.67
2022-12-28T09:16:53.625Z,2.17
2022-12-28T09:19:23.851Z,2.10
2022-12-28T09:21:55.256Z,2.00
2022-12-28T09:24:24.254Z,2.40
2022-12-28T09:26:54.673Z,2.70
2022-12-28T09:29:23.107Z,2.83
2022-12-28T09:31:51.499Z,2.50
2022-12-28T09:34:37.555Z,2.80
2022-12-28T09:37:08.580Z,2.37
2022-12-28T09:39:37.074Z,2.10
2022-12-28T09:42:13.764Z,2.67
2022-12-28T09:44:56.262Z,2.07
2022-12-28T09:47:32.041Z,2.50
2022-12-28T09:50:29.989Z,2.17
2022-12-28T09:53:16.364Z,2.60
2022-12-28T09:55:56.751Z,2.13
2022-12-28T09:58:25.501Z,2.40
2022-12-28T10:00:57.110Z,2.47
2022-12-28T10:03:28.658Z,2.47
2022-12-28T10:05:58.783Z,2.57
2022-12-28T10:08:30.022Z,2.40
2022-12-28T10:11:03.054Z,2.30
2022-12-28T10:13:54.581Z,1.87
2022-12-28T10:16:26.598Z,2.00
2022-12-28T10:18:55.321Z,2.60
2022-12-28T10:21:32.555Z,2.47
2022-12-28T10:26:58.937Z,2.50
2022-12-28T10:29:28.605Z,2.70
2022-12-28T10:32:03.456Z,2.63
2022-12-28T10:34:34.751Z,2.40
2022-12-28T10:37:14.607Z,2.07
2022-12-28T10:39:53.254Z,2.20
2022-12-28T10:42:27.262Z,2.23
2022-12-28T10:45:02.563Z,2.37
2022-12-28T10:47:36.325Z,2.30
2022-12-28T10:52:59.248Z,2.67
2022-12-28T10:55:33.180Z,2.20
2022-12-28T10:58:31.606Z,2.37
2022-12-28T11:01:07.715Z,1.80
2022-12-28T11:03:39.499Z,1.80
2022-12-28T11:06:18.972Z,2.47
2022-12-28T11:09:11.908Z,2.90
2022-12-28T11:11:42.656Z,2.03
2022-12-28T11:14:18.867Z,1.97
2022-12-28T11:16:47.392Z,2.30
2022-12-28T11:19:16.540Z,2.13
2022-12-28T11:21:45.735Z,1.77
2022-12-28T11:24:16.838Z,1.97
2022-12-28T11:26:51.558Z,2.30
2022-12-28T11:29:21.280Z,2.07
2022-12-28T11:31:55.514Z,2.40
2022-12-28T11:34:28.898Z,2.30
2022-12-28T11:36:58.246Z,2.00
2022-12-28T11:39:44.769Z,2.30
2022-12-28T11:42:59.202Z,2.03
2022-12-28T11:45:53.677Z,1.90
2022-12-28T11:48:51.523Z,2.33
2022-12-28T11:51:23.430Z,2.60
2022-12-28T11:53:59.090Z,1.67
2022-12-28T11:56:29.301Z,2.40
2022-12-28T11:59:24.207Z,2.13
2022-12-28T12:01:55.402Z,2.73
2022-12-28T12:04:46.341Z,2.60
2022-12-28T12:07:42.212Z,2.13
2022-12-28T12:10:33.742Z,2.33
2022-12-28T12:13:19.703Z,2.00
2022-12-28T12:15:50.641Z,2.10
2022-12-28T12:18:23.337Z,2.20
2022-12-28T12:20:59.862Z,2.30
2022-12-28T12:23:40.420Z,2.07
2022-12-28T12:26:28.256Z,2.30
2022-12-28T12:29:02.251Z,1.83
2022-12-28T12:31:37.284Z,1.80
2022-12-28T12:34:19.472Z,1.97
2022-12-28T12:37:42.210Z,2.30
2022-12-28T12:40:52.704Z,2.30
2022-12-28T12:43:32.944Z,2.07
2022-12-28T12:46:27.000Z,1.87
2022-12-28T12:49:46.460Z,1.87
2022-12-28T12:52:28.175Z,2.27
2022-12-28T12:55:14.193Z,2.00
2022-12-28T12:57:58.001Z,1.90
2022-12-28T13:00:38.695Z,2.20
2022-12-28T13:03:31.131Z,3.33
2022-12-28T13:06:01.176Z,2.30
2022-12-28T13:08:37.771Z,2.10
2022-12-28T13:11:10.539Z,2.77
2022-12-28T13:13:41.929Z,1.97
2022-12-28T13:16:13.305Z,2.07
2022-12-28T13:18:45.688Z,1.80
2022-12-28T13:21:22.263Z,2.37
2022-12-28T13:23:52.811Z,2.30
2022-12-28T13:26:28.470Z,2.83
2022-12-28T13:29:00.513Z,2.77
2022-12-28T13:31:35.123Z,3.17
2022-12-28T13:34:06.407Z,2.80
2022-12-28T13:36:36.184Z,2.70
2022-12-28T13:39:14.082Z,2.30
2022-12-28T13:41:50.838Z,2.20
2022-12-28T13:44:42.620Z,2.40
2022-12-28T13:47:19.877Z,2.10
2022-12-28T13:49:55.539Z,1.73
2022-12-28T13:52:32.352Z,2.40
2022-12-28T13:55:05.815Z,1.60
2022-12-28T13:57:46.685Z,2.40
2022-12-28T14:00:21.011Z,1.60
2022-12-28T14:02:53.513Z,2.70
2022-12-28T14:05:26.043Z,2.00
2022-12-28T14:07:58.091Z,2.80
2022-12-28T14:10:27.495Z,2.37
2022-12-28T14:12:57.039Z,1.77
2022-12-28T14:15:26.167Z,1.90
2022-12-28T14:17:55.216Z,1.60
2022-12-28T14:20:23.737Z,1.90
2022-12-28T14:22:52.128Z,1.80
2022-12-28T14:25:23.488Z,2.20
2022-12-28T14:27:58.977Z,2.10
2022-12-28T14:30:31.233Z,2.37
2022-12-28T14:33:02.639Z,1.90
2022-12-28T14:35:31.039Z,1.70
2022-12-28T14:38:01.807Z,2.03
2022-12-28T14:40:34.632Z,2.17
2022-12-28T14:43:11.671Z,2.13
2022-12-28T14:46:07.011Z,2.40
2022-12-28T14:48:38.023Z,2.17
2022-12-28T14:51:25.643Z,2.50
2022-12-28T14:54:21.016Z,2.17
2022-12-28T14:56:55.313Z,2.90
2022-12-28T14:59:29.850Z,2.60
2022-12-28T15:01:58.555Z,2.30
2022-12-28T15:04:36.130Z,1.80
2022-12-28T15:07:05.794Z,2.57
2022-12-28T15:09:34.311Z,2.13
2022-12-28T15:12:12.756Z,2.20
2022-12-28T15:14:41.188Z,2.20
2022-12-28T15:17:11.331Z,2.20
2022-12-28T15:19:39.882Z,2.20
2022-12-28T15:22:08.272Z,2.30
2022-12-28T15:24:36.955Z,1.93
2022-12-28T15:27:06.192Z,2.10
2022-12-28T15:30:06.791Z,2.13
2022-12-28T15:32:24.375Z,2.23
2022-12-28T15:34:52.716Z,1.70
2022-12-28T15:37:21.206Z,2.30
2022-12-28T15:39:49.941Z,2.10
2022-12-28T15:42:18.288Z,2.67
2022-12-28T15:44:48.685Z,1.97
2022-12-28T15:47:17.119Z,2.00
2022-12-28T15:49:45.490Z,2.27
2022-12-28T15:52:14.079Z,2.27
2022-12-28T15:54:46.896Z,2.20
2022-12-28T15:57:15.986Z,2.03
2022-12-28T15:59:44.515Z,1.90
2022-12-28T16:02:14.516Z,1.77
2022-12-28T16:04:43.014Z,2.47
2022-12-28T16:07:11.817Z,1.40
2022-12-28T16:09:40.190Z,1.67
2022-12-28T16:12:09.146Z,3.40
2022-12-28T16:14:38.218Z,2.60
2022-12-28T16:17:06.549Z,2.47
2022-12-28T16:19:40.620Z,1.83
2022-12-28T16:22:09.293Z,2.00
2022-12-28T16:24:37.690Z,2.23
2022-12-28T16:27:06.430Z,2.30
2022-12-28T16:29:34.801Z,2.07
2022-12-28T16:32:03.287Z,2.10
2022-12-28T16:34:32.207Z,2.47
2022-12-28T16:37:01.927Z,2.13
2022-12-28T16:39:31.633Z,1.63
2022-12-28T16:42:00.099Z,2.97
2022-12-28T16:44:29.531Z,2.03
2022-12-28T16:46:59.638Z,1.93
2022-12-28T16:49:29.678Z,1.80
2022-12-28T16:51:58.459Z,1.63
2022-12-28T16:54:28.998Z,1.83
2022-12-28T16:56:57.558Z,2.27
2022-12-28T16:59:28.901Z,1.80
2022-12-28T17:01:59.735Z,1.80
2022-12-28T17:04:28.257Z,1.67
2022-12-28T17:06:56.730Z,2.13
2022-12-28T17:09:25.101Z,1.90
2022-12-28T17:11:54.911Z,1.53
2022-12-28T17:14:37.556Z,1.87
2022-12-28T17:17:07.498Z,1.90
2022-12-28T17:19:36.351Z,1.70
2022-12-28T17:22:05.472Z,1.70
2022-12-28T17:24:33.957Z,1.87
2022-12-28T17:27:08.926Z,2.50
2022-12-28T17:29:39.616Z,2.07
2022-12-28T17:32:08.743Z,2.60
2022-12-28T17:34:37.531Z,1.50
2022-12-28T17:37:05.966Z,2.10
2022-12-28T17:39:40.325Z,2.10
2022-12-28T17:42:11.770Z,1.93
2022-12-28T17:44:40.166Z,2.00
2022-12-28T17:47:09.225Z,2.53
2022-12-28T17:49:37.607Z,2.70
2022-12-28T17:52:06.337Z,2.47
2022-12-28T17:54:35.274Z,2.00
2022-12-28T17:57:03.593Z,2.20
2022-12-28T17:59:33.385Z,2.40
2022-12-28T18:02:04.981Z,2.07
2022-12-28T18:04:34.619Z,2.17
2022-12-28T18:07:03.063Z,2.17
2022-12-28T18:09:31.450Z,1.90
2022-12-28T18:11:59.984Z,2.10
2022-12-28T18:14:29.236Z,2.10
2022-12-28T18:16:59.027Z,2.70
2022-12-28T18:19:27.377Z,2.70
2022-12-28T18:21:55.731Z,1.80
2022-12-28T18:24:24.701Z,1.63
2022-12-28T18:26:55.243Z,2.27
2022-12-28T18:29:23.793Z,2.47
2022-12-28T18:31:52.134Z,4.30
2022-12-28T18:34:22.000Z,2.30
2022-12-28T18:36:50.497Z,2.67
2022-12-28T18:39:18.864Z,2.87
2022-12-28T18:41:47.221Z,2.40
2022-12-28T18:44:15.727Z,2.47
2022-12-28T18:46:44.245Z,2.13
2022-12-28T18:49:12.806Z,2.43
2022-12-28T18:51:42.491Z,2.30
2022-12-28T18:54:10.922Z,2.90
2022-12-28T18:56:39.487Z,2.47
2022-12-28T18:59:07.807Z,2.97
2022-12-28T19:04:29.376Z,2.80
2022-12-28T19:06:59.407Z,2.40
2022-12-28T19:09:27.841Z,2.70
2022-12-28T19:11:56.191Z,2.53
2022-12-28T19:14:24.787Z,2.23
2022-12-28T19:16:53.153Z,2.07
2022-12-28T19:19:21.659Z,3.90
2022-12-28T19:21:56.583Z,2.20
2022-12-28T19:24:28.803Z,2.60
2022-12-28T19:26:57.137Z,2.50
2022-12-28T19:29:25.471Z,2.43
2022-12-28T19:31:54.756Z,2.70
2022-12-28T19:34:23.202Z,2.87
2022-12-28T19:36:51.511Z,2.67
2022-12-28T19:39:19.839Z,3.83
2022-12-28T19:41:49.556Z,3.47
2022-12-28T19:44:20.522Z,3.27
2022-12-28T19:46:49.454Z,4.30
2022-12-28T19:49:17.908Z,3.47
2022-12-28T19:51:46.248Z,3.70
2022-12-28T19:54:14.740Z,3.50
2022-12-28T19:56:43.337Z,3.60
2022-12-28T19:59:13.050Z,3.33
2022-12-28T20:01:41.550Z,3.30
2022-12-28T20:04:13.980Z,3.63
2022-12-28T20:06:45.022Z,2.73
2022-12-28T20:09:14.734Z,2.60
2022-12-28T20:11:45.005Z,2.60
2022-12-28T20:14:21.797Z,3.43
2022-12-28T20:16:53.452Z,3.57
2022-12-28T20:19:21.832Z,2.57
2022-12-28T20:21:50.492Z,2.50
2022-12-28T20:24:21.551Z,3.23
2022-12-28T20:26:49.994Z,2.43
2022-12-28T20:29:19.723Z,2.80
2022-12-28T20:31:48.115Z,2.90
2022-12-28T20:34:16.612Z,2.90
2022-12-28T20:36:45.048Z,3.00
2022-12-28T20:39:13.618Z,2.93
2022-12-28T20:41:59.434Z,2.97
2022-12-28T20:44:32.465Z,3.10
2022-12-28T20:47:02.738Z,3.13
2022-12-28T20:49:32.038Z,3.10
2022-12-28T20:52:00.403Z,3.70
2022-12-28T20:54:28.802Z,2.93
2022-12-28T20:56:57.160Z,2.90
2022-12-28T20:59:26.510Z,2.77
2022-12-28T21:01:56.483Z,3.80
2022-12-28T21:04:25.994Z,3.57
2022-12-28T21:06:55.471Z,4.03
2022-12-28T21:09:24.089Z,3.83
2022-12-28T21:11:52.470Z,3.27
2022-12-28T21:14:20.955Z,3.33
2022-12-28T21:16:49.773Z,3.40
2022-12-28T21:19:19.599Z,3.60
2022-12-28T21:21:49.506Z,2.67
2022-12-28T21:24:17.951Z,3.03
2022-12-28T21:26:46.493Z,3.70
2022-12-28T21:29:17.887Z,2.83
2022-12-28T21:31:51.652Z,3.33
2022-12-28T21:34:21.808Z,3.10
2022-12-28T21:36:50.645Z,2.73
2022-12-28T21:39:19.396Z,2.40
2022-12-28T21:41:50.963Z,2.73
2022-12-28T21:44:22.881Z,3.03
2022-12-28T21:46:52.636Z,2.60
2022-12-28T21:49:22.618Z,2.90
2022-12-28T21:51:51.704Z,3.30
2022-12-28T21:54:22.858Z,2.40
2022-12-28T21:56:53.699Z,2.10
2022-12-28T21:59:23.857Z,2.53
2022-12-28T22:02:16.165Z,2.50
2022-12-28T22:05:18.038Z,2.93
2022-12-28T22:07:46.741Z,2.70
2022-12-28T22:10:33.043Z,2.07
2022-12-28T22:13:01.569Z,2.27
2022-12-28T22:15:47.721Z,2.20
2022-12-28T22:18:52.670Z,2.40
2022-12-28T22:21:11.694Z,2.60
2022-12-28T22:23:40.108Z,2.70
2022-12-28T22:26:08.553Z,2.67
2022-12-28T22:28:37.246Z,2.43
2022-12-28T22:31:06.560Z,2.20
2022-12-28T22:33:35.230Z,2.50
2022-12-28T22:36:12.811Z,2.33
2022-12-28T22:38:41.564Z,2.40
2022-12-28T22:41:10.363Z,2.40
2022-12-28T22:43:39.478Z,2.60
2022-12-28T22:46:11.247Z,2.33
2022-12-28T22:48:39.835Z,2.57
2022-12-28T22:51:10.768Z,2.10
2022-12-28T22:53:41.053Z,2.80
2022-12-28T22:56:15.919Z,2.60
2022-12-28T22:58:44.300Z,2.70
2022-12-28T23:01:15.315Z,2.87
2022-12-28T23:03:45.470Z,2.80
2022-12-28T23:06:17.409Z,2.97
2022-12-28T23:08:47.636Z,2.50
2022-12-28T23:14:43.123Z,3.30
2022-12-28T23:17:17.179Z,2.63
2022-12-28T23:20:04.785Z,2.30
2022-12-28T23:22:53.188Z,2.97
2022-12-28T23:25:42.447Z,2.50
2022-12-28T23:28:13.612Z,2.10
2022-12-28T23:30:46.903Z,2.23
2022-12-28T23:33:15.735Z,2.30
2022-12-28T23:35:44.059Z,2.20
2022-12-28T23:38:13.216Z,2.20
2022-12-28T23:40:42.948Z,2.33
2022-12-28T23:43:11.412Z,2.53
2022-12-28T23:45:39.906Z,1.90
2022-12-28T23:48:09.599Z,1.90
2022-12-28T23:50:38.004Z,1.93
2022-12-28T23:53:06.369Z,2.33
2022-12-28T23:55:34.700Z,2.60
2022-12-28T23:58:03.126Z,2.43
